Lazy Z — ZCMR4 — position and weather

sailwx.info

Track history (hours):
 
Tides and Currents Weather Stations Pressure Air Temp Water Temp Dewpoint Dewpoint Depression Visibility Wind Speed Wind Dir Waves Ship Positions

Lazy Z

Last reported at 2018-Jul-23 05:06 UTC. Time now 2018-Jul-23 11:54 UTC.
Position N 43°32' E 007°03'.

Length 51 m; draft 3.5 m.

Type: Pleasure craft. MMSI: 319307000.

Date/timePositionNaut miles runAvg speedWind from/ knotsBaromVisibWave heightAir tempDewpointWater temp
2018-Jul-23 05:06N 43°32' E 007°03'0 0.0
2018-Jul-23 04:54N 43°32' E 007°03'0 0.0
2018-Jul-23 04:21N 43°32' E 007°03'0 0.0
2018-Jul-23 03:57N 43°32' E 007°03'0 0.0
2018-Jul-23 03:24N 43°32' E 007°03'0 0.0
2018-Jul-23 02:57N 43°32' E 007°03'0 0.0
2018-Jul-23 02:27N 43°32' E 007°03'0 0.0
2018-Jul-23 01:57N 43°32' E 007°03'0 0.0
2018-Jul-23 01:30N 43°32' E 007°03'0 0.0
2018-Jul-23 00:54N 43°32' E 007°03'0 0.0
2018-Jul-23 00:30N 43°32' E 007°03'0 0.0
2018-Jul-22 23:30N 43°32' E 007°03'0 0.0
2018-Jul-22 23:00N 43°32' E 007°03'0 0.0
2018-Jul-22 22:30N 43°32' E 007°03'0 0.0
2018-Jul-22 22:00N 43°32' E 007°03'0 0.0
2018-Jul-22 21:27N 43°32' E 007°03'0 0.6
2018-Jul-22 21:00N 43°32' E 007°04'3 5.4
2018-Jul-22 20:29N 43°29' E 007°03'5 0.2
2018-Jul-21 18:22N 43°25' E 006°59'513.4
2018-Jul-21 17:59N 43°28' E 007°04'5 0.5
2018-Jul-21 07:26N 43°33' E 007°07'0 0.0
2018-Jul-21 05:14N 43°33' E 007°07'0 0.0
2018-Jul-20 22:49N 43°33' E 007°07'1610.9
2018-Jul-20 21:24N 43°42' E 007°24'3 1.1
2018-Jul-20 19:03N 43°44' E 007°26'0 0.0
2018-Jul-20 18:59N 43°44' E 007°26'0 0.0
2018-Jul-20 18:30N 43°44' E 007°26'0 0.0
2018-Jul-20 18:00N 43°44' E 007°26'0 0.0
2018-Jul-20 17:18N 43°44' E 007°26'0 0.0
2018-Jul-20 16:57N 43°44' E 007°26'0 0.0
2018-Jul-20 16:28N 43°44' E 007°26'1 2.4
2018-Jul-20 16:01N 43°43' E 007°25'17 0.6
2018-Jul-19 10:25N 43°32' E 007°08'614.5
2018-Jul-19 10:01N 43°28' E 007°02'4 0.2
2018-Jul-18 12:52N 43°25' E 006°58'514.1
2018-Jul-18 12:30N 43°29' E 007°04'1013.5
2018-Jul-18 11:44N 43°36' E 007°14'7 0.4
2018-Jul-17 19:29N 43°42' E 007°19'0 0.0
2018-Jul-17 17:38N 43°42' E 007°19'7 6.3
2018-Jul-17 16:34N 43°39' E 007°10'0 0.2
2018-Jul-17 16:31N 43°39' E 007°10'912.7
2018-Jul-17 15:49N 43°30' E 007°07'8 0.2
2018-Jul-16 06:39N 43°26' E 006°58'215.2
2018-Jul-16 06:30N 43°28' E 007°01'5 9.1
2018-Jul-16 06:00N 43°32' E 007°03'1 1.0
2018-Jul-16 05:29N 43°32' E 007°03'0 0.0
2018-Jul-16 04:59N 43°32' E 007°03'0 0.0
2018-Jul-16 03:32N 43°32' E 007°03'0 0.0
2018-Jul-16 03:11N 43°32' E 007°03'0 0.0
2018-Jul-16 02:50N 43°32' E 007°03'0 0.0
2018-Jul-16 02:23N 43°32' E 007°03'0 0.0
2018-Jul-16 01:59N 43°32' E 007°03'0 0.0
2018-Jul-16 01:23N 43°32' E 007°03'0 0.0
2018-Jul-16 00:59N 43°32' E 007°03'0 0.0
2018-Jul-16 00:23N 43°32' E 007°03'0 0.0
2018-Jul-15 23:56N 43°32' E 007°03'0 0.0
2018-Jul-15 23:26N 43°32' E 007°03'0 0.0
2018-Jul-15 22:59N 43°32' E 007°03'0 0.0
2018-Jul-15 22:26N 43°32' E 007°03'0 0.0
2018-Jul-15 20:17N 43°32' E 007°03'0 0.0
2018-Jul-15 19:56N 43°32' E 007°03'0 0.0
2018-Jul-15 19:20N 43°32' E 007°03'0 0.0
2018-Jul-15 18:56N 43°32' E 007°03'0 0.0
2018-Jul-15 18:29N 43°32' E 007°03'0 0.0
2018-Jul-15 17:44N 43°32' E 007°03'0 0.0
2018-Jul-15 17:17N 43°32' E 007°03'0 0.0
2018-Jul-15 16:50N 43°32' E 007°03'0 0.0
2018-Jul-15 16:05N 43°32' E 007°03'0 0.1
2018-Jul-15 15:56N 43°32' E 007°03'0 0.0
2018-Jul-15 15:26N 43°32' E 007°03'0 0.0
2018-Jul-15 14:50N 43°32' E 007°03'0 0.0
2018-Jul-15 13:44N 43°32' E 007°03'0 0.0
2018-Jul-15 12:26N 43°32' E 007°03'0 0.0
2018-Jul-15 11:56N 43°32' E 007°03'0 0.0
2018-Jul-15 11:29N 43°32' E 007°03'0 0.0
2018-Jul-15 10:56N 43°32' E 007°03'0 0.0
2018-Jul-15 10:17N 43°32' E 007°03'0 0.0
2018-Jul-15 09:56N 43°32' E 007°03'0 0.0
2018-Jul-15 09:23N 43°32' E 007°03'2 5.2
2018-Jul-15 09:01N 43°30' E 007°05'3 5.5
2018-Jul-15 08:28N 43°32' E 007°02'0 0.0
2018-Jul-15 07:58N 43°32' E 007°02'0 0.0
2018-Jul-15 07:28N 43°32' E 007°02'0 0.0
2018-Jul-15 06:58N 43°32' E 007°02'0 0.0
2018-Jul-15 06:28N 43°32' E 007°02'0 0.0
2018-Jul-15 05:58N 43°32' E 007°02'0 0.0
2018-Jul-15 05:28N 43°32' E 007°02'0 0.0
2018-Jul-15 04:58N 43°32' E 007°02'0 0.0
2018-Jul-15 04:25N 43°32' E 007°02'0 0.0
2018-Jul-15 03:55N 43°32' E 007°02'0 0.0
2018-Jul-15 03:25N 43°32' E 007°02'0 0.0
2018-Jul-15 02:52N 43°32' E 007°02'0 0.0
2018-Jul-15 02:25N 43°32' E 007°02'0 0.0
2018-Jul-15 01:55N 43°32' E 007°02'0 0.0
2018-Jul-15 01:28N 43°32' E 007°02'0 0.0
2018-Jul-15 00:58N 43°32' E 007°02'0 0.0
2018-Jul-15 00:22N 43°32' E 007°02'0 0.0
2018-Jul-14 23:52N 43°32' E 007°02'0 0.0
2018-Jul-14 23:07N 43°32' E 007°02'0 0.0
2018-Jul-14 22:58N 43°32' E 007°02'0 0.0
2018-Jul-14 22:25N 43°32' E 007°02'0 0.0
2018-Jul-14 21:55N 43°32' E 007°02'0 0.0
2018-Jul-14 21:25N 43°32' E 007°02'0 0.1
2018-Jul-14 21:01N 43°32' E 007°02'0 0.4
2018-Jul-14 20:30N 43°32' E 007°01'0 0.9
2018-Jul-14 20:00N 43°32' E 007°01'4 0.7
2018-Jul-14 13:44N 43°33' E 007°07'0 0.0
2018-Jul-14 13:20N 43°33' E 007°07'0 0.0
2018-Jul-14 12:53N 43°33' E 007°07'0 0.0
2018-Jul-14 11:38N 43°33' E 007°07'0 0.1
2018-Jul-14 11:23N 43°33' E 007°07'0 0.0
2018-Jul-14 10:44N 43°33' E 007°07'0 0.0
2018-Jul-14 10:20N 43°33' E 007°07'0 0.0
2018-Jul-14 10:00N 43°33' E 007°07'0 0.4
2018-Jul-14 09:30N 43°33' E 007°07'4 7.6
2018-Jul-14 08:57N 43°32' E 007°01'1 1.7
2018-Jul-14 08:29N 43°32' E 007°02'0 0.0
2018-Jul-14 07:56N 43°32' E 007°02'0 0.0
2018-Jul-14 07:26N 43°32' E 007°02'0 0.0
2018-Jul-14 06:59N 43°32' E 007°02'0 0.0
2018-Jul-14 06:17N 43°32' E 007°02'0 0.0
2018-Jul-14 05:59N 43°32' E 007°02'0 0.0
2018-Jul-14 05:29N 43°32' E 007°02'0 0.0
2018-Jul-14 04:59N 43°32' E 007°02'0 0.0
2018-Jul-14 04:29N 43°32' E 007°02'0 0.0
2018-Jul-14 03:50N 43°32' E 007°02'0 0.0
2018-Jul-14 03:17N 43°32' E 007°02'0 0.0
2018-Jul-14 02:53N 43°32' E 007°02'0 0.0
2018-Jul-14 02:23N 43°32' E 007°02'0 0.0
2018-Jul-14 01:53N 43°32' E 007°02'0 0.0
2018-Jul-14 01:20N 43°32' E 007°02'0 0.0
2018-Jul-14 00:53N 43°32' E 007°02'0 0.0
2018-Jul-14 00:20N 43°32' E 007°02'0 0.0
2018-Jul-13 23:56N 43°32' E 007°02'0 0.0
2018-Jul-13 23:26N 43°32' E 007°02'0 0.0
2018-Jul-13 22:56N 43°32' E 007°02'0 0.0
2018-Jul-13 22:26N 43°32' E 007°02'0 0.0
2018-Jul-13 21:56N 43°32' E 007°02'0 0.0
2018-Jul-13 21:26N 43°32' E 007°02'0 0.0
2018-Jul-13 20:59N 43°32' E 007°02'0 0.0
2018-Jul-13 20:29N 43°32' E 007°02'0 0.0
2018-Jul-13 19:59N 43°32' E 007°02'0 0.0
2018-Jul-13 19:26N 43°32' E 007°02'0 0.0
2018-Jul-13 18:59N 43°32' E 007°02'0 0.0
2018-Jul-13 18:29N 43°32' E 007°02'0 0.0
2018-Jul-13 17:59N 43°32' E 007°02'0 0.0
2018-Jul-13 17:17N 43°32' E 007°02'0 0.0
2018-Jul-13 16:59N 43°32' E 007°02'0 0.0
2018-Jul-13 16:29N 43°32' E 007°02'0 0.0
2018-Jul-13 15:59N 43°32' E 007°02'0 0.0
2018-Jul-13 15:20N 43°32' E 007°02'0 0.0
2018-Jul-13 14:50N 43°32' E 007°02'0 0.0
2018-Jul-13 14:20N 43°32' E 007°02'0 0.0
2018-Jul-13 13:20N 43°32' E 007°02'0 0.0
2018-Jul-13 12:53N 43°32' E 007°02'0 0.0
2018-Jul-13 12:23N 43°32' E 007°02'0 0.0
2018-Jul-13 11:53N 43°32' E 007°02'0 0.0
2018-Jul-13 11:23N 43°32' E 007°02'0 0.0
2018-Jul-13 10:53N 43°32' E 007°02'0 0.0
2018-Jul-13 10:26N 43°32' E 007°02'0 0.0
2018-Jul-13 09:56N 43°32' E 007°02'0 0.0
2018-Jul-13 09:26N 43°32' E 007°02'0 0.0
2018-Jul-13 08:56N 43°32' E 007°02'0 0.0
2018-Jul-13 08:26N 43°32' E 007°02'0 0.0
2018-Jul-13 07:56N 43°32' E 007°02'0 0.0
2018-Jul-13 07:29N 43°32' E 007°02'0 0.0
2018-Jul-13 06:59N 43°32' E 007°02'0 0.0
2018-Jul-13 06:29N 43°32' E 007°02'0 0.0
2018-Jul-13 05:59N 43°32' E 007°02'0 0.0
2018-Jul-13 05:29N 43°32' E 007°02'  
Track history (hours):
 
Tides and Currents Weather Stations Pressure Air Temp Water Temp Dewpoint Dewpoint Depression Visibility Wind Speed Wind Dir Waves Ship Positions

Lazy Z

Last reported at 2018-Jul-23 05:06 UTC. Time now 2018-Jul-23 11:54 UTC.
Position N 43°32' E 007°03'.

Length 51 m; draft 3.5 m.

Type: Pleasure craft. MMSI: 319307000.

Date/timePositionNaut miles runAvg speedWind from/ knotsBaromVisibWave heightAir tempDewpointWater temp
2018-Jul-23 05:06N 43°32' E 007°03'0 0.0
2018-Jul-23 04:54N 43°32' E 007°03'0 0.0
2018-Jul-23 04:21N 43°32' E 007°03'0 0.0
2018-Jul-23 03:57N 43°32' E 007°03'0 0.0
2018-Jul-23 03:24N 43°32' E 007°03'0 0.0
2018-Jul-23 02:57N 43°32' E 007°03'0 0.0
2018-Jul-23 02:27N 43°32' E 007°03'0 0.0
2018-Jul-23 01:57N 43°32' E 007°03'0 0.0
2018-Jul-23 01:30N 43°32' E 007°03'0 0.0
2018-Jul-23 00:54N 43°32' E 007°03'0 0.0
2018-Jul-23 00:30N 43°32' E 007°03'0 0.0
2018-Jul-22 23:30N 43°32' E 007°03'0 0.0
2018-Jul-22 23:00N 43°32' E 007°03'0 0.0
2018-Jul-22 22:30N 43°32' E 007°03'0 0.0
2018-Jul-22 22:00N 43°32' E 007°03'0 0.0
2018-Jul-22 21:27N 43°32' E 007°03'0 0.6
2018-Jul-22 21:00N 43°32' E 007°04'3 5.4
2018-Jul-22 20:29N 43°29' E 007°03'5 0.2
2018-Jul-21 18:22N 43°25' E 006°59'513.4
2018-Jul-21 17:59N 43°28' E 007°04'5 0.5
2018-Jul-21 07:26N 43°33' E 007°07'0 0.0
2018-Jul-21 05:14N 43°33' E 007°07'0 0.0
2018-Jul-20 22:49N 43°33' E 007°07'1610.9
2018-Jul-20 21:24N 43°42' E 007°24'3 1.1
2018-Jul-20 19:03N 43°44' E 007°26'0 0.0
2018-Jul-20 18:59N 43°44' E 007°26'0 0.0
2018-Jul-20 18:30N 43°44' E 007°26'0 0.0
2018-Jul-20 18:00N 43°44' E 007°26'0 0.0
2018-Jul-20 17:18N 43°44' E 007°26'0 0.0
2018-Jul-20 16:57N 43°44' E 007°26'0 0.0
2018-Jul-20 16:28N 43°44' E 007°26'1 2.4
2018-Jul-20 16:01N 43°43' E 007°25'17 0.6
2018-Jul-19 10:25N 43°32' E 007°08'614.5
2018-Jul-19 10:01N 43°28' E 007°02'4 0.2
2018-Jul-18 12:52N 43°25' E 006°58'514.1
2018-Jul-18 12:30N 43°29' E 007°04'1013.5
2018-Jul-18 11:44N 43°36' E 007°14'7 0.4
2018-Jul-17 19:29N 43°42' E 007°19'0 0.0
2018-Jul-17 17:38N 43°42' E 007°19'7 6.3
2018-Jul-17 16:34N 43°39' E 007°10'0 0.2
2018-Jul-17 16:31N 43°39' E 007°10'912.7
2018-Jul-17 15:49N 43°30' E 007°07'8 0.2
2018-Jul-16 06:39N 43°26' E 006°58'215.2
2018-Jul-16 06:30N 43°28' E 007°01'5 9.1
2018-Jul-16 06:00N 43°32' E 007°03'1 1.0
2018-Jul-16 05:29N 43°32' E 007°03'0 0.0
2018-Jul-16 04:59N 43°32' E 007°03'0 0.0
2018-Jul-16 03:32N 43°32' E 007°03'0 0.0
2018-Jul-16 03:11N 43°32' E 007°03'0 0.0
2018-Jul-16 02:50N 43°32' E 007°03'0 0.0
2018-Jul-16 02:23N 43°32' E 007°03'0 0.0
2018-Jul-16 01:59N 43°32' E 007°03'0 0.0
2018-Jul-16 01:23N 43°32' E 007°03'0 0.0
2018-Jul-16 00:59N 43°32' E 007°03'0 0.0
2018-Jul-16 00:23N 43°32' E 007°03'0 0.0
2018-Jul-15 23:56N 43°32' E 007°03'0 0.0
2018-Jul-15 23:26N 43°32' E 007°03'0 0.0
2018-Jul-15 22:59N 43°32' E 007°03'0 0.0
2018-Jul-15 22:26N 43°32' E 007°03'0 0.0
2018-Jul-15 20:17N 43°32' E 007°03'0 0.0
2018-Jul-15 19:56N 43°32' E 007°03'0 0.0
2018-Jul-15 19:20N 43°32' E 007°03'0 0.0
2018-Jul-15 18:56N 43°32' E 007°03'0 0.0
2018-Jul-15 18:29N 43°32' E 007°03'0 0.0
2018-Jul-15 17:44N 43°32' E 007°03'0 0.0
2018-Jul-15 17:17N 43°32' E 007°03'0 0.0
2018-Jul-15 16:50N 43°32' E 007°03'0 0.0
2018-Jul-15 16:05N 43°32' E 007°03'0 0.1
2018-Jul-15 15:56N 43°32' E 007°03'0 0.0
2018-Jul-15 15:26N 43°32' E 007°03'0 0.0
2018-Jul-15 14:50N 43°32' E 007°03'0 0.0
2018-Jul-15 13:44N 43°32' E 007°03'0 0.0
2018-Jul-15 12:26N 43°32' E 007°03'0 0.0
2018-Jul-15 11:56N 43°32' E 007°03'0 0.0
2018-Jul-15 11:29N 43°32' E 007°03'0 0.0
2018-Jul-15 10:56N 43°32' E 007°03'0 0.0
2018-Jul-15 10:17N 43°32' E 007°03'0 0.0
2018-Jul-15 09:56N 43°32' E 007°03'0 0.0
2018-Jul-15 09:23N 43°32' E 007°03'2 5.2
2018-Jul-15 09:01N 43°30' E 007°05'3 5.5
2018-Jul-15 08:28N 43°32' E 007°02'0 0.0
2018-Jul-15 07:58N 43°32' E 007°02'0 0.0
2018-Jul-15 07:28N 43°32' E 007°02'0 0.0
2018-Jul-15 06:58N 43°32' E 007°02'0 0.0
2018-Jul-15 06:28N 43°32' E 007°02'0 0.0
2018-Jul-15 05:58N 43°32' E 007°02'0 0.0
2018-Jul-15 05:28N 43°32' E 007°02'0 0.0
2018-Jul-15 04:58N 43°32' E 007°02'0 0.0
2018-Jul-15 04:25N 43°32' E 007°02'0 0.0
2018-Jul-15 03:55N 43°32' E 007°02'0 0.0
2018-Jul-15 03:25N 43°32' E 007°02'0 0.0
2018-Jul-15 02:52N 43°32' E 007°02'0 0.0
2018-Jul-15 02:25N 43°32' E 007°02'0 0.0
2018-Jul-15 01:55N 43°32' E 007°02'0 0.0
2018-Jul-15 01:28N 43°32' E 007°02'0 0.0
2018-Jul-15 00:58N 43°32' E 007°02'0 0.0
2018-Jul-15 00:22N 43°32' E 007°02'0 0.0
2018-Jul-14 23:52N 43°32' E 007°02'0 0.0
2018-Jul-14 23:07N 43°32' E 007°02'0 0.0
2018-Jul-14 22:58N 43°32' E 007°02'0 0.0
2018-Jul-14 22:25N 43°32' E 007°02'0 0.0
2018-Jul-14 21:55N 43°32' E 007°02'0 0.0
2018-Jul-14 21:25N 43°32' E 007°02'0 0.1
2018-Jul-14 21:01N 43°32' E 007°02'0 0.4
2018-Jul-14 20:30N 43°32' E 007°01'0 0.9
2018-Jul-14 20:00N 43°32' E 007°01'4 0.7
2018-Jul-14 13:44N 43°33' E 007°07'0 0.0
2018-Jul-14 13:20N 43°33' E 007°07'0 0.0
2018-Jul-14 12:53N 43°33' E 007°07'0 0.0
2018-Jul-14 11:38N 43°33' E 007°07'0 0.1
2018-Jul-14 11:23N 43°33' E 007°07'0 0.0
2018-Jul-14 10:44N 43°33' E 007°07'0 0.0
2018-Jul-14 10:20N 43°33' E 007°07'0 0.0
2018-Jul-14 10:00N 43°33' E 007°07'0 0.4
2018-Jul-14 09:30N 43°33' E 007°07'4 7.6
2018-Jul-14 08:57N 43°32' E 007°01'1 1.7
2018-Jul-14 08:29N 43°32' E 007°02'0 0.0
2018-Jul-14 07:56N 43°32' E 007°02'0 0.0
2018-Jul-14 07:26N 43°32' E 007°02'0 0.0
2018-Jul-14 06:59N 43°32' E 007°02'0 0.0
2018-Jul-14 06:17N 43°32' E 007°02'0 0.0
2018-Jul-14 05:59N 43°32' E 007°02'0 0.0
2018-Jul-14 05:29N 43°32' E 007°02'0 0.0
2018-Jul-14 04:59N 43°32' E 007°02'0 0.0
2018-Jul-14 04:29N 43°32' E 007°02'0 0.0
2018-Jul-14 03:50N 43°32' E 007°02'0 0.0
2018-Jul-14 03:17N 43°32' E 007°02'0 0.0
2018-Jul-14 02:53N 43°32' E 007°02'0 0.0
2018-Jul-14 02:23N 43°32' E 007°02'0 0.0
2018-Jul-14 01:53N 43°32' E 007°02'0 0.0
2018-Jul-14 01:20N 43°32' E 007°02'0 0.0
2018-Jul-14 00:53N 43°32' E 007°02'0 0.0
2018-Jul-14 00:20N 43°32' E 007°02'0 0.0
2018-Jul-13 23:56N 43°32' E 007°02'0 0.0
2018-Jul-13 23:26N 43°32' E 007°02'0 0.0
2018-Jul-13 22:56N 43°32' E 007°02'0 0.0
2018-Jul-13 22:26N 43°32' E 007°02'0 0.0
2018-Jul-13 21:56N 43°32' E 007°02'0 0.0
2018-Jul-13 21:26N 43°32' E 007°02'0 0.0
2018-Jul-13 20:59N 43°32' E 007°02'0 0.0
2018-Jul-13 20:29N 43°32' E 007°02'0 0.0
2018-Jul-13 19:59N 43°32' E 007°02'0 0.0
2018-Jul-13 19:26N 43°32' E 007°02'0 0.0
2018-Jul-13 18:59N 43°32' E 007°02'0 0.0
2018-Jul-13 18:29N 43°32' E 007°02'0 0.0
2018-Jul-13 17:59N 43°32' E 007°02'0 0.0
2018-Jul-13 17:17N 43°32' E 007°02'0 0.0
2018-Jul-13 16:59N 43°32' E 007°02'0 0.0
2018-Jul-13 16:29N 43°32' E 007°02'0 0.0
2018-Jul-13 15:59N 43°32' E 007°02'0 0.0
2018-Jul-13 15:20N 43°32' E 007°02'0 0.0
2018-Jul-13 14:50N 43°32' E 007°02'0 0.0
2018-Jul-13 14:20N 43°32' E 007°02'0 0.0
2018-Jul-13 13:20N 43°32' E 007°02'0 0.0
2018-Jul-13 12:53N 43°32' E 007°02'0 0.0
2018-Jul-13 12:23N 43°32' E 007°02'0 0.0
2018-Jul-13 11:53N 43°32' E 007°02'0 0.0
2018-Jul-13 11:23N 43°32' E 007°02'0 0.0
2018-Jul-13 10:53N 43°32' E 007°02'0 0.0
2018-Jul-13 10:26N 43°32' E 007°02'0 0.0
2018-Jul-13 09:56N 43°32' E 007°02'0 0.0
2018-Jul-13 09:26N 43°32' E 007°02'0 0.0
2018-Jul-13 08:56N 43°32' E 007°02'0 0.0
2018-Jul-13 08:26N 43°32' E 007°02'0 0.0
2018-Jul-13 07:56N 43°32' E 007°02'0 0.0
2018-Jul-13 07:29N 43°32' E 007°02'0 0.0
2018-Jul-13 06:59N 43°32' E 007°02'0 0.0
2018-Jul-13 06:29N 43°32' E 007°02'0 0.0
2018-Jul-13 05:59N 43°32' E 007°02'0 0.0
2018-Jul-13 05:29N 43°32' E 007°02'  

Dump ship's entire track history